sensor_id;sensor_type;location;lat;lon;timestamp;temperature;humidity
17202;DHT22;8717;53.588;10.176;2023-12-20T00:01:39;4.80;99.90
17202;DHT22;8717;53.588;10.176;2023-12-20T00:04:06;4.80;99.90
17202;DHT22;8717;53.588;10.176;2023-12-20T00:06:33;4.70;99.90
17202;DHT22;8717;53.588;10.176;2023-12-20T00:09:00;4.70;99.90
17202;DHT22;8717;53.588;10.176;2023-12-20T00:11:26;4.70;99.90
17202;DHT22;8717;53.588;10.176;2023-12-20T00:13:53;4.60;99.90
17202;DHT22;8717;53.588;10.176;2023-12-20T00:16:20;4.60;99.90
17202;DHT22;8717;53.588;10.176;2023-12-20T00:18:48;4.60;99.90
17202;DHT22;8717;53.588;10.176;2023-12-20T00:21:14;4.60;99.90
17202;DHT22;8717;53.588;10.176;2023-12-20T00:23:41;4.50;99.90
17202;DHT22;8717;53.588;10.176;2023-12-20T00:26:08;4.50;99.90
17202;DHT22;8717;53.588;10.176;2023-12-20T00:28:35;4.40;99.90
17202;DHT22;8717;53.588;10.176;2023-12-20T00:31:02;4.40;99.90
17202;DHT22;8717;53.588;10.176;2023-12-20T00:33:30;4.40;99.90
17202;DHT22;8717;53.588;10.176;2023-12-20T00:35:58;4.40;99.90
17202;DHT22;8717;53.588;10.176;2023-12-20T00:38:25;4.30;99.90
17202;DHT22;8717;53.588;10.176;2023-12-20T00:40:52;4.30;99.90
17202;DHT22;8717;53.588;10.176;2023-12-20T00:43:19;4.30;99.90
17202;DHT22;8717;53.588;10.176;2023-12-20T00:45:46;4.30;99.90
17202;DHT22;8717;53.588;10.176;2023-12-20T00:48:12;4.30;99.90
17202;DHT22;8717;53.588;10.176;2023-12-20T00:50:39;4.30;99.90
17202;DHT22;8717;53.588;10.176;2023-12-20T00:53:07;4.30;99.90
17202;DHT22;8717;53.588;10.176;2023-12-20T00:55:34;4.40;99.90
17202;DHT22;8717;53.588;10.176;2023-12-20T00:58:01;4.40;99.90
17202;DHT22;8717;53.588;10.176;2023-12-20T01:00:28;4.40;99.90
17202;DHT22;8717;53.588;10.176;2023-12-20T01:02:54;4.40;99.90
17202;DHT22;8717;53.588;10.176;2023-12-20T01:05:21;4.50;99.90
17202;DHT22;8717;53.588;10.176;2023-12-20T01:07:49;4.50;99.90
17202;DHT22;8717;53.588;10.176;2023-12-20T01:10:17;4.60;99.90
17202;DHT22;8717;53.588;10.176;2023-12-20T01:12:44;4.60;99.90
17202;DHT22;8717;53.588;10.176;2023-12-20T01:15:11;4.70;99.90
17202;DHT22;8717;53.588;10.176;2023-12-20T01:17:38;4.70;99.90
17202;DHT22;8717;53.588;10.176;2023-12-20T01:20:06;4.80;99.90
17202;DHT22;8717;53.588;10.176;2023-12-20T01:22:32;4.80;99.90
17202;DHT22;8717;53.588;10.176;2023-12-20T01:25:01;4.80;99.90
17202;DHT22;8717;53.588;10.176;2023-12-20T01:27:30;4.90;99.90
17202;DHT22;8717;53.588;10.176;2023-12-20T01:29:56;4.90;99.90
17202;DHT22;8717;53.588;10.176;2023-12-20T01:32:23;4.90;99.90
17202;DHT22;8717;53.588;10.176;2023-12-20T01:34:50;4.90;99.90
17202;DHT22;8717;53.588;10.176;2023-12-20T01:37:16;4.90;99.90
17202;DHT22;8717;53.588;10.176;2023-12-20T01:39:43;4.80;99.90
17202;DHT22;8717;53.588;10.176;2023-12-20T01:42:10;4.80;99.90
17202;DHT22;8717;53.588;10.176;2023-12-20T01:44:38;4.70;99.90
17202;DHT22;8717;53.588;10.176;2023-12-20T01:47:04;4.70;99.90
17202;DHT22;8717;53.588;10.176;2023-12-20T01:49:31;4.60;99.90
17202;DHT22;8717;53.588;10.176;2023-12-20T01:51:58;4.60;99.90
17202;DHT22;8717;53.588;10.176;2023-12-20T01:54:25;4.50;99.90
17202;DHT22;8717;53.588;10.176;2023-12-20T01:56:52;4.50;99.90
17202;DHT22;8717;53.588;10.176;2023-12-20T01:59:20;4.40;99.90
17202;DHT22;8717;53.588;10.176;2023-12-20T02:01:49;4.40;99.90
17202;DHT22;8717;53.588;10.176;2023-12-20T02:04:16;4.40;99.90
17202;DHT22;8717;53.588;10.176;2023-12-20T02:06:43;4.30;99.90
17202;DHT22;8717;53.588;10.176;2023-12-20T02:09:12;4.40;99.90
17202;DHT22;8717;53.588;10.176;2023-12-20T02:11:40;4.40;99.90
17202;DHT22;8717;53.588;10.176;2023-12-20T02:14:07;4.40;99.90
17202;DHT22;8717;53.588;10.176;2023-12-20T02:16:34;4.50;99.90
17202;DHT22;8717;53.588;10.176;2023-12-20T02:19:03;4.50;99.90
17202;DHT22;8717;53.588;10.176;2023-12-20T02:21:33;4.50;99.90
17202;DHT22;8717;53.588;10.176;2023-12-20T02:24:01;4.50;99.90
17202;DHT22;8717;53.588;10.176;2023-12-20T02:26:28;4.60;99.90
17202;DHT22;8717;53.588;10.176;2023-12-20T02:28:55;4.60;99.90
17202;DHT22;8717;53.588;10.176;2023-12-20T02:31:22;4.60;99.90
17202;DHT22;8717;53.588;10.176;2023-12-20T02:33:49;4.60;99.90
17202;DHT22;8717;53.588;10.176;2023-12-20T02:36:16;4.60;99.90
17202;DHT22;8717;53.588;10.176;2023-12-20T02:38:45;4.60;99.90
17202;DHT22;8717;53.588;10.176;2023-12-20T02:41:12;4.50;99.90
17202;DHT22;8717;53.588;10.176;2023-12-20T02:43:41;4.50;99.90
17202;DHT22;8717;53.588;10.176;2023-12-20T02:46:08;4.50;99.90
17202;DHT22;8717;53.588;10.176;2023-12-20T02:48:35;4.60;99.90
17202;DHT22;8717;53.588;10.176;2023-12-20T02:51:02;4.60;99.90
17202;DHT22;8717;53.588;10.176;2023-12-20T02:53:29;4.60;99.90
17202;DHT22;8717;53.588;10.176;2023-12-20T02:55:57;4.60;99.90
17202;DHT22;8717;53.588;10.176;2023-12-20T02:58:23;4.60;99.90
17202;DHT22;8717;53.588;10.176;2023-12-20T03:00:51;4.70;99.90
17202;DHT22;8717;53.588;10.176;2023-12-20T03:03:17;4.70;99.90
17202;DHT22;8717;53.588;10.176;2023-12-20T03:05:45;4.70;99.90
17202;DHT22;8717;53.588;10.176;2023-12-20T03:08:12;4.70;99.90
17202;DHT22;8717;53.588;10.176;2023-12-20T03:10:39;4.80;99.90
17202;DHT22;8717;53.588;10.176;2023-12-20T03:13:07;4.80;99.90
17202;DHT22;8717;53.588;10.176;2023-12-20T03:15:34;4.80;99.90
17202;DHT22;8717;53.588;10.176;2023-12-20T03:18:01;4.80;99.90
17202;DHT22;8717;53.588;10.176;2023-12-20T03:20:27;4.90;99.90
17202;DHT22;8717;53.588;10.176;2023-12-20T03:22:56;4.90;99.90
17202;DHT22;8717;53.588;10.176;2023-12-20T03:25:23;4.90;99.90
17202;DHT22;8717;53.588;10.176;2023-12-20T03:27:50;4.90;99.90
17202;DHT22;8717;53.588;10.176;2023-12-20T03:30:18;5.00;99.90
17202;DHT22;8717;53.588;10.176;2023-12-20T03:32:45;4.90;99.90
17202;DHT22;8717;53.588;10.176;2023-12-20T03:35:12;4.90;99.90
17202;DHT22;8717;53.588;10.176;2023-12-20T03:37:38;4.90;99.90
17202;DHT22;8717;53.588;10.176;2023-12-20T03:40:06;5.00;99.90
17202;DHT22;8717;53.588;10.176;2023-12-20T03:42:33;5.00;99.90
17202;DHT22;8717;53.588;10.176;2023-12-20T03:44:59;5.00;99.90
17202;DHT22;8717;53.588;10.176;2023-12-20T03:47:27;5.00;99.90
17202;DHT22;8717;53.588;10.176;2023-12-20T03:49:54;5.00;99.90
17202;DHT22;8717;53.588;10.176;2023-12-20T03:52:21;5.00;99.90
17202;DHT22;8717;53.588;10.176;2023-12-20T03:54:48;5.00;99.90
17202;DHT22;8717;53.588;10.176;2023-12-20T03:57:14;4.90;99.90
17202;DHT22;8717;53.588;10.176;2023-12-20T03:59:41;5.00;99.90
17202;DHT22;8717;53.588;10.176;2023-12-20T04:02:08;4.90;99.90
17202;DHT22;8717;53.588;10.176;2023-12-20T04:04:36;5.00;99.90
17202;DHT22;8717;53.588;10.176;2023-12-20T04:07:03;4.90;99.90
17202;DHT22;8717;53.588;10.176;2023-12-20T04:09:29;5.00;99.90
17202;DHT22;8717;53.588;10.176;2023-12-20T04:11:56;4.90;99.90
17202;DHT22;8717;53.588;10.176;2023-12-20T04:14:23;4.90;99.90
17202;DHT22;8717;53.588;10.176;2023-12-20T04:16:50;4.90;99.90
17202;DHT22;8717;53.588;10.176;2023-12-20T04:19:17;4.90;99.90
17202;DHT22;8717;53.588;10.176;2023-12-20T04:21:45;4.90;99.90
17202;DHT22;8717;53.588;10.176;2023-12-20T04:24:12;4.90;99.90
17202;DHT22;8717;53.588;10.176;2023-12-20T04:26:39;4.90;99.90
17202;DHT22;8717;53.588;10.176;2023-12-20T04:29:06;4.90;99.90
17202;DHT22;8717;53.588;10.176;2023-12-20T04:31:33;4.90;99.90
17202;DHT22;8717;53.588;10.176;2023-12-20T04:34:00;4.80;99.90
17202;DHT22;8717;53.588;10.176;2023-12-20T04:36:27;4.90;99.90
17202;DHT22;8717;53.588;10.176;2023-12-20T04:38:56;4.90;99.90
17202;DHT22;8717;53.588;10.176;2023-12-20T04:41:25;4.80;99.90
17202;DHT22;8717;53.588;10.176;2023-12-20T04:43:53;4.80;99.90
17202;DHT22;8717;53.588;10.176;2023-12-20T04:46:20;4.80;99.90
17202;DHT22;8717;53.588;10.176;2023-12-20T04:48:46;4.80;99.90
17202;DHT22;8717;53.588;10.176;2023-12-20T04:51:13;4.90;99.90
17202;DHT22;8717;53.588;10.176;2023-12-20T04:53:40;4.80;99.90
17202;DHT22;8717;53.588;10.176;2023-12-20T04:56:08;4.80;99.90
17202;DHT22;8717;53.588;10.176;2023-12-20T04:58:35;4.80;99.90
17202;DHT22;8717;53.588;10.176;2023-12-20T05:01:02;4.80;99.90
17202;DHT22;8717;53.588;10.176;2023-12-20T05:03:29;4.80;99.90
17202;DHT22;8717;53.588;10.176;2023-12-20T05:05:56;4.80;99.90
17202;DHT22;8717;53.588;10.176;2023-12-20T05:08:22;4.90;99.90
17202;DHT22;8717;53.588;10.176;2023-12-20T05:10:49;4.90;99.90
17202;DHT22;8717;53.588;10.176;2023-12-20T05:13:17;4.90;99.90
17202;DHT22;8717;53.588;10.176;2023-12-20T05:15:44;4.90;99.90
17202;DHT22;8717;53.588;10.176;2023-12-20T05:18:10;4.90;99.90
17202;DHT22;8717;53.588;10.176;2023-12-20T05:20:37;4.90;99.90
17202;DHT22;8717;53.588;10.176;2023-12-20T05:23:04;4.90;99.90
17202;DHT22;8717;53.588;10.176;2023-12-20T05:25:31;4.90;99.90
17202;DHT22;8717;53.588;10.176;2023-12-20T05:27:57;4.90;99.90
17202;DHT22;8717;53.588;10.176;2023-12-20T05:30:25;4.90;99.90
17202;DHT22;8717;53.588;10.176;2023-12-20T05:32:52;4.90;99.90
17202;DHT22;8717;53.588;10.176;2023-12-20T05:35:19;4.90;99.90
17202;DHT22;8717;53.588;10.176;2023-12-20T05:37:47;4.90;99.90
17202;DHT22;8717;53.588;10.176;2023-12-20T05:40:14;4.90;99.90
17202;DHT22;8717;53.588;10.176;2023-12-20T05:42:41;5.00;99.90
17202;DHT22;8717;53.588;10.176;2023-12-20T05:45:09;5.00;99.90
17202;DHT22;8717;53.588;10.176;2023-12-20T05:47:37;5.00;99.90
17202;DHT22;8717;53.588;10.176;2023-12-20T05:50:05;5.00;99.90
17202;DHT22;8717;53.588;10.176;2023-12-20T05:52:31;5.10;99.90
17202;DHT22;8717;53.588;10.176;2023-12-20T05:54:58;5.00;99.90
17202;DHT22;8717;53.588;10.176;2023-12-20T05:57:26;5.00;99.90
17202;DHT22;8717;53.588;10.176;2023-12-20T05:59:53;5.00;99.90
17202;DHT22;8717;53.588;10.176;2023-12-20T06:02:20;5.00;99.90
17202;DHT22;8717;53.588;10.176;2023-12-20T06:04:48;5.10;99.90
17202;DHT22;8717;53.588;10.176;2023-12-20T06:07:16;5.00;99.90
17202;DHT22;8717;53.588;10.176;2023-12-20T06:09:42;5.00;99.90
17202;DHT22;8717;53.588;10.176;2023-12-20T06:12:10;5.00;99.90
17202;DHT22;8717;53.588;10.176;2023-12-20T06:14:37;5.00;99.90
17202;DHT22;8717;53.588;10.176;2023-12-20T06:17:03;5.00;99.90
17202;DHT22;8717;53.588;10.176;2023-12-20T06:19:30;5.00;99.90
17202;DHT22;8717;53.588;10.176;2023-12-20T06:21:58;5.00;99.90
17202;DHT22;8717;53.588;10.176;2023-12-20T06:24:25;5.00;99.90
17202;DHT22;8717;53.588;10.176;2023-12-20T06:26:53;5.00;99.90
17202;DHT22;8717;53.588;10.176;2023-12-20T06:29:20;5.00;99.90
17202;DHT22;8717;53.588;10.176;2023-12-20T06:31:47;5.00;99.90
17202;DHT22;8717;53.588;10.176;2023-12-20T06:34:13;5.00;99.90
17202;DHT22;8717;53.588;10.176;2023-12-20T06:36:40;5.00;99.90
17202;DHT22;8717;53.588;10.176;2023-12-20T06:39:08;5.00;99.90
17202;DHT22;8717;53.588;10.176;2023-12-20T06:41:38;5.00;99.90
17202;DHT22;8717;53.588;10.176;2023-12-20T06:44:04;5.10;99.90
17202;DHT22;8717;53.588;10.176;2023-12-20T06:46:31;5.10;99.90
17202;DHT22;8717;53.588;10.176;2023-12-20T06:48:58;5.10;99.90
17202;DHT22;8717;53.588;10.176;2023-12-20T06:51:25;5.10;99.90
17202;DHT22;8717;53.588;10.176;2023-12-20T06:53:52;5.10;99.90
17202;DHT22;8717;53.588;10.176;2023-12-20T06:56:21;5.10;99.90
17202;DHT22;8717;53.588;10.176;2023-12-20T06:58:48;5.10;99.90
17202;DHT22;8717;53.588;10.176;2023-12-20T07:01:15;5.10;99.90
17202;DHT22;8717;53.588;10.176;2023-12-20T07:03:43;5.10;99.90
17202;DHT22;8717;53.588;10.176;2023-12-20T07:06:09;5.20;99.90
17202;DHT22;8717;53.588;10.176;2023-12-20T07:08:36;5.10;99.90
17202;DHT22;8717;53.588;10.176;2023-12-20T07:11:03;5.10;99.90
17202;DHT22;8717;53.588;10.176;2023-12-20T07:13:31;5.10;99.90
17202;DHT22;8717;53.588;10.176;2023-12-20T07:15:58;5.20;99.90
17202;DHT22;8717;53.588;10.176;2023-12-20T07:18:25;5.10;99.90
17202;DHT22;8717;53.588;10.176;2023-12-20T07:20:51;5.10;99.90
17202;DHT22;8717;53.588;10.176;2023-12-20T07:23:20;5.10;99.90
17202;DHT22;8717;53.588;10.176;2023-12-20T07:25:47;5.10;99.90
17202;DHT22;8717;53.588;10.176;2023-12-20T07:28:13;5.10;99.90
17202;DHT22;8717;53.588;10.176;2023-12-20T07:30:41;5.20;99.90
17202;DHT22;8717;53.588;10.176;2023-12-20T07:33:08;5.10;99.90
17202;DHT22;8717;53.588;10.176;2023-12-20T07:35:35;5.20;99.90
17202;DHT22;8717;53.588;10.176;2023-12-20T07:38:02;5.10;99.90
17202;DHT22;8717;53.588;10.176;2023-12-20T07:40:29;5.10;99.90
17202;DHT22;8717;53.588;10.176;2023-12-20T07:42:55;5.20;99.90
17202;DHT22;8717;53.588;10.176;2023-12-20T07:45:23;5.20;99.90
17202;DHT22;8717;53.588;10.176;2023-12-20T07:47:51;5.20;99.90
17202;DHT22;8717;53.588;10.176;2023-12-20T07:50:19;5.20;99.90
17202;DHT22;8717;53.588;10.176;2023-12-20T07:52:45;5.20;99.90
17202;DHT22;8717;53.588;10.176;2023-12-20T07:55:12;5.20;99.90
17202;DHT22;8717;53.588;10.176;2023-12-20T07:57:38;5.20;99.90
17202;DHT22;8717;53.588;10.176;2023-12-20T08:00:06;5.20;99.90
17202;DHT22;8717;53.588;10.176;2023-12-20T08:02:33;5.20;99.90
17202;DHT22;8717;53.588;10.176;2023-12-20T08:05:01;5.20;99.90
17202;DHT22;8717;53.588;10.176;2023-12-20T08:07:28;5.20;99.90
17202;DHT22;8717;53.588;10.176;2023-12-20T08:09:54;5.30;99.90
17202;DHT22;8717;53.588;10.176;2023-12-20T08:12:22;5.30;99.90
17202;DHT22;8717;53.588;10.176;2023-12-20T08:14:49;5.30;99.90
17202;DHT22;8717;53.588;10.176;2023-12-20T08:17:15;5.30;99.90
17202;DHT22;8717;53.588;10.176;2023-12-20T08:19:44;5.30;99.90
17202;DHT22;8717;53.588;10.176;2023-12-20T08:22:12;5.30;99.90
17202;DHT22;8717;53.588;10.176;2023-12-20T08:24:39;5.30;99.90
17202;DHT22;8717;53.588;10.176;2023-12-20T08:27:05;5.30;99.90
17202;DHT22;8717;53.588;10.176;2023-12-20T08:29:32;5.40;99.90
17202;DHT22;8717;53.588;10.176;2023-12-20T08:31:59;5.40;99.90
17202;DHT22;8717;53.588;10.176;2023-12-20T08:34:26;5.40;99.90
17202;DHT22;8717;53.588;10.176;2023-12-20T08:36:53;5.40;99.90
17202;DHT22;8717;53.588;10.176;2023-12-20T08:39:21;5.40;99.90
17202;DHT22;8717;53.588;10.176;2023-12-20T08:41:48;5.40;99.90
17202;DHT22;8717;53.588;10.176;2023-12-20T08:44:14;5.40;99.90
17202;DHT22;8717;53.588;10.176;2023-12-20T08:46:41;5.50;99.90
17202;DHT22;8717;53.588;10.176;2023-12-20T08:49:08;5.50;99.90
17202;DHT22;8717;53.588;10.176;2023-12-20T08:51:35;5.50;99.90
17202;DHT22;8717;53.588;10.176;2023-12-20T08:54:05;5.50;99.90
17202;DHT22;8717;53.588;10.176;2023-12-20T08:56:34;5.60;99.90
17202;DHT22;8717;53.588;10.176;2023-12-20T08:59:01;5.60;99.90
17202;DHT22;8717;53.588;10.176;2023-12-20T09:01:28;5.60;99.90
17202;DHT22;8717;53.588;10.176;2023-12-20T09:03:54;5.70;99.90
17202;DHT22;8717;53.588;10.176;2023-12-20T09:06:21;5.70;99.90
17202;DHT22;8717;53.588;10.176;2023-12-20T09:08:48;5.70;99.90
17202;DHT22;8717;53.588;10.176;2023-12-20T09:11:14;5.70;99.90
17202;DHT22;8717;53.588;10.176;2023-12-20T09:13:44;5.80;99.90
17202;DHT22;8717;53.588;10.176;2023-12-20T09:16:11;5.70;99.90
17202;DHT22;8717;53.588;10.176;2023-12-20T09:18:38;5.70;99.90
17202;DHT22;8717;53.588;10.176;2023-12-20T09:21:05;5.70;99.90
17202;DHT22;8717;53.588;10.176;2023-12-20T09:23:31;5.70;99.90
17202;DHT22;8717;53.588;10.176;2023-12-20T09:25:58;5.60;99.90
17202;DHT22;8717;53.588;10.176;2023-12-20T09:28:25;5.60;99.90
17202;DHT22;8717;53.588;10.176;2023-12-20T09:30:53;5.50;99.90
17202;DHT22;8717;53.588;10.176;2023-12-20T09:33:20;5.50;99.90
17202;DHT22;8717;53.588;10.176;2023-12-20T09:35:46;5.50;99.90
17202;DHT22;8717;53.588;10.176;2023-12-20T09:38:13;5.40;99.90
17202;DHT22;8717;53.588;10.176;2023-12-20T09:40:41;5.40;99.90
17202;DHT22;8717;53.588;10.176;2023-12-20T09:43:10;5.30;99.90
17202;DHT22;8717;53.588;10.176;2023-12-20T09:45:38;5.30;99.90
17202;DHT22;8717;53.588;10.176;2023-12-20T09:48:11;5.30;99.90
17202;DHT22;8717;53.588;10.176;2023-12-20T09:50:40;5.30;99.90
17202;DHT22;8717;53.588;10.176;2023-12-20T09:53:09;5.30;99.90
17202;DHT22;8717;53.588;10.176;2023-12-20T09:55:36;5.20;99.90
17202;DHT22;8717;53.588;10.176;2023-12-20T09:58:04;5.20;99.90
17202;DHT22;8717;53.588;10.176;2023-12-20T10:00:32;5.30;99.90
17202;DHT22;8717;53.588;10.176;2023-12-20T10:03:00;5.30;99.90
17202;DHT22;8717;53.588;10.176;2023-12-20T10:05:29;5.30;99.90
17202;DHT22;8717;53.588;10.176;2023-12-20T10:07:56;5.30;99.90
17202;DHT22;8717;53.588;10.176;2023-12-20T10:10:23;5.30;99.90
17202;DHT22;8717;53.588;10.176;2023-12-20T10:13:04;5.20;99.90
17202;DHT22;8717;53.588;10.176;2023-12-20T10:15:32;5.20;99.90
17202;DHT22;8717;53.588;10.176;2023-12-20T10:17:59;5.20;99.90
17202;DHT22;8717;53.588;10.176;2023-12-20T10:20:28;5.10;99.90
17202;DHT22;8717;53.588;10.176;2023-12-20T10:22:55;5.10;99.90
17202;DHT22;8717;53.588;10.176;2023-12-20T10:25:22;5.10;99.90
17202;DHT22;8717;53.588;10.176;2023-12-20T10:27:50;5.00;99.90
17202;DHT22;8717;53.588;10.176;2023-12-20T10:30:17;5.00;99.90
17202;DHT22;8717;53.588;10.176;2023-12-20T10:32:43;5.00;99.90
17202;DHT22;8717;53.588;10.176;2023-12-20T10:35:10;5.00;99.90
17202;DHT22;8717;53.588;10.176;2023-12-20T10:37:38;5.00;99.90
17202;DHT22;8717;53.588;10.176;2023-12-20T10:40:06;5.00;99.90
17202;DHT22;8717;53.588;10.176;2023-12-20T10:42:33;5.00;99.90
17202;DHT22;8717;53.588;10.176;2023-12-20T10:45:01;5.10;99.90
17202;DHT22;8717;53.588;10.176;2023-12-20T10:47:30;5.10;99.90
17202;DHT22;8717;53.588;10.176;2023-12-20T10:49:59;5.20;99.90
17202;DHT22;8717;53.588;10.176;2023-12-20T10:52:27;5.20;99.90
17202;DHT22;8717;53.588;10.176;2023-12-20T10:54:57;5.20;99.90
17202;DHT22;8717;53.588;10.176;2023-12-20T10:57:25;5.20;99.90
17202;DHT22;8717;53.588;10.176;2023-12-20T10:59:54;5.20;99.90
17202;DHT22;8717;53.588;10.176;2023-12-20T11:02:22;5.20;99.90
17202;DHT22;8717;53.588;10.176;2023-12-20T11:04:53;5.20;99.90
17202;DHT22;8717;53.588;10.176;2023-12-20T11:07:25;5.20;99.90
17202;DHT22;8717;53.588;10.176;2023-12-20T11:09:59;5.20;99.90
17202;DHT22;8717;53.588;10.176;2023-12-20T11:12:35;5.20;99.90
17202;DHT22;8717;53.588;10.176;2023-12-20T11:15:05;5.20;99.90
17202;DHT22;8717;53.588;10.176;2023-12-20T11:17:33;5.20;99.90
17202;DHT22;8717;53.588;10.176;2023-12-20T11:20:09;5.20;99.90
17202;DHT22;8717;53.588;10.176;2023-12-20T11:22:40;5.20;99.90
17202;DHT22;8717;53.588;10.176;2023-12-20T11:25:19;5.20;99.90
17202;DHT22;8717;53.588;10.176;2023-12-20T11:28:07;5.10;99.90
17202;DHT22;8717;53.588;10.176;2023-12-20T11:30:41;5.00;99.90
17202;DHT22;8717;53.588;10.176;2023-12-20T11:33:08;5.00;99.90
17202;DHT22;8717;53.588;10.176;2023-12-20T11:35:35;4.90;99.90
17202;DHT22;8717;53.588;10.176;2023-12-20T11:38:02;4.80;99.90
17202;DHT22;8717;53.588;10.176;2023-12-20T11:40:33;4.80;99.90
17202;DHT22;8717;53.588;10.176;2023-12-20T11:43:01;4.70;99.90
17202;DHT22;8717;53.588;10.176;2023-12-20T11:45:28;4.60;99.90
17202;DHT22;8717;53.588;10.176;2023-12-20T11:47:56;4.60;99.90
17202;DHT22;8717;53.588;10.176;2023-12-20T11:50:24;4.50;99.90
17202;DHT22;8717;53.588;10.176;2023-12-20T11:52:52;4.50;99.90
17202;DHT22;8717;53.588;10.176;2023-12-20T11:55:19;4.40;99.90
17202;DHT22;8717;53.588;10.176;2023-12-20T11:57:47;4.50;99.90
17202;DHT22;8717;53.588;10.176;2023-12-20T12:00:14;4.50;99.90
17202;DHT22;8717;53.588;10.176;2023-12-20T12:02:41;4.50;99.90
17202;DHT22;8717;53.588;10.176;2023-12-20T12:05:08;4.60;99.90
17202;DHT22;8717;53.588;10.176;2023-12-20T12:07:35;4.50;99.90
17202;DHT22;8717;53.588;10.176;2023-12-20T12:10:02;4.60;99.90
17202;DHT22;8717;53.588;10.176;2023-12-20T12:12:29;4.60;99.90
17202;DHT22;8717;53.588;10.176;2023-12-20T12:14:59;4.70;99.90
17202;DHT22;8717;53.588;10.176;2023-12-20T12:17:25;4.70;99.90
17202;DHT22;8717;53.588;10.176;2023-12-20T12:20:02;4.80;99.90
17202;DHT22;8717;53.588;10.176;2023-12-20T12:22:29;4.80;99.90
17202;DHT22;8717;53.588;10.176;2023-12-20T12:24:59;4.80;99.90
17202;DHT22;8717;53.588;10.176;2023-12-20T12:27:27;4.90;99.90
17202;DHT22;8717;53.588;10.176;2023-12-20T12:30:02;4.90;99.90
17202;DHT22;8717;53.588;10.176;2023-12-20T12:32:29;5.00;99.90
17202;DHT22;8717;53.588;10.176;2023-12-20T12:34:56;5.00;99.90
17202;DHT22;8717;53.588;10.176;2023-12-20T12:37:22;5.00;99.90
17202;DHT22;8717;53.588;10.176;2023-12-20T12:39:50;5.00;99.90
17202;DHT22;8717;53.588;10.176;2023-12-20T12:42:19;5.10;99.90
17202;DHT22;8717;53.588;10.176;2023-12-20T12:44:47;5.20;99.90
17202;DHT22;8717;53.588;10.176;2023-12-20T12:47:15;5.30;99.90
17202;DHT22;8717;53.588;10.176;2023-12-20T12:49:41;5.40;99.90
17202;DHT22;8717;53.588;10.176;2023-12-20T12:52:08;5.50;99.90
17202;DHT22;8717;53.588;10.176;2023-12-20T12:54:35;5.60;99.90
17202;DHT22;8717;53.588;10.176;2023-12-20T12:57:02;5.70;99.90
17202;DHT22;8717;53.588;10.176;2023-12-20T12:59:29;5.80;99.90
17202;DHT22;8717;53.588;10.176;2023-12-20T13:01:55;5.90;99.90
17202;DHT22;8717;53.588;10.176;2023-12-20T13:04:23;5.90;99.90
17202;DHT22;8717;53.588;10.176;2023-12-20T13:06:50;6.00;99.90
17202;DHT22;8717;53.588;10.176;2023-12-20T13:09:17;6.00;99.90
17202;DHT22;8717;53.588;10.176;2023-12-20T13:11:44;6.00;99.90
17202;DHT22;8717;53.588;10.176;2023-12-20T13:14:11;6.00;99.90
17202;DHT22;8717;53.588;10.176;2023-12-20T13:16:40;5.90;99.90
17202;DHT22;8717;53.588;10.176;2023-12-20T13:19:07;5.90;99.90
17202;DHT22;8717;53.588;10.176;2023-12-20T13:21:36;5.90;99.90
17202;DHT22;8717;53.588;10.176;2023-12-20T13:24:04;5.80;99.90
17202;DHT22;8717;53.588;10.176;2023-12-20T13:26:30;5.80;99.90
17202;DHT22;8717;53.588;10.176;2023-12-20T13:28:57;5.80;99.90
17202;DHT22;8717;53.588;10.176;2023-12-20T13:31:24;5.70;99.90
17202;DHT22;8717;53.588;10.176;2023-12-20T13:33:50;5.70;99.90
17202;DHT22;8717;53.588;10.176;2023-12-20T13:36:17;5.70;99.90
17202;DHT22;8717;53.588;10.176;2023-12-20T13:38:45;5.60;99.90
17202;DHT22;8717;53.588;10.176;2023-12-20T13:41:12;5.60;99.90
17202;DHT22;8717;53.588;10.176;2023-12-20T13:43:39;5.60;99.90
17202;DHT22;8717;53.588;10.176;2023-12-20T13:46:05;5.50;99.90
17202;DHT22;8717;53.588;10.176;2023-12-20T13:48:32;5.50;99.90
17202;DHT22;8717;53.588;10.176;2023-12-20T13:50:59;5.50;99.90
17202;DHT22;8717;53.588;10.176;2023-12-20T13:53:26;5.50;99.90
17202;DHT22;8717;53.588;10.176;2023-12-20T13:55:55;5.40;99.90
17202;DHT22;8717;53.588;10.176;2023-12-20T13:58:21;5.40;99.90
17202;DHT22;8717;53.588;10.176;2023-12-20T14:00:48;5.30;99.90
17202;DHT22;8717;53.588;10.176;2023-12-20T14:03:15;5.30;99.90
17202;DHT22;8717;53.588;10.176;2023-12-20T14:05:41;5.20;99.90
17202;DHT22;8717;53.588;10.176;2023-12-20T14:08:08;5.20;99.90
17202;DHT22;8717;53.588;10.176;2023-12-20T14:10:35;5.10;99.90
17202;DHT22;8717;53.588;10.176;2023-12-20T14:13:03;5.10;99.90
17202;DHT22;8717;53.588;10.176;2023-12-20T14:15:30;5.00;99.90
17202;DHT22;8717;53.588;10.176;2023-12-20T14:18:03;5.00;99.90
17202;DHT22;8717;53.588;10.176;2023-12-20T14:20:31;5.00;99.90
17202;DHT22;8717;53.588;10.176;2023-12-20T14:23:00;5.00;99.90
17202;DHT22;8717;53.588;10.176;2023-12-20T14:25:26;5.00;99.90
17202;DHT22;8717;53.588;10.176;2023-12-20T14:27:53;4.90;99.90
17202;DHT22;8717;53.588;10.176;2023-12-20T14:30:21;4.90;99.90
17202;DHT22;8717;53.588;10.176;2023-12-20T14:32:47;4.90;99.90
17202;DHT22;8717;53.588;10.176;2023-12-20T14:35:14;4.80;99.90
17202;DHT22;8717;53.588;10.176;2023-12-20T14:37:41;4.80;99.90
17202;DHT22;8717;53.588;10.176;2023-12-20T14:40:08;4.80;99.90
17202;DHT22;8717;53.588;10.176;2023-12-20T14:42:36;4.80;99.90
17202;DHT22;8717;53.588;10.176;2023-12-20T14:45:04;4.70;99.90
17202;DHT22;8717;53.588;10.176;2023-12-20T14:47:32;4.70;99.90
17202;DHT22;8717;53.588;10.176;2023-12-20T14:49:59;4.70;99.90
17202;DHT22;8717;53.588;10.176;2023-12-20T14:52:25;4.60;99.90
17202;DHT22;8717;53.588;10.176;2023-12-20T14:54:52;4.60;99.90
17202;DHT22;8717;53.588;10.176;2023-12-20T14:57:19;4.60;99.90
17202;DHT22;8717;53.588;10.176;2023-12-20T14:59:45;4.60;99.90
17202;DHT22;8717;53.588;10.176;2023-12-20T15:02:12;4.60;99.90
17202;DHT22;8717;53.588;10.176;2023-12-20T15:04:40;4.60;99.90
17202;DHT22;8717;53.588;10.176;2023-12-20T15:07:06;4.50;99.90
17202;DHT22;8717;53.588;10.176;2023-12-20T15:09:33;4.50;99.90
17202;DHT22;8717;53.588;10.176;2023-12-20T15:12:00;4.60;99.90
17202;DHT22;8717;53.588;10.176;2023-12-20T15:14:26;4.60;99.90
17202;DHT22;8717;53.588;10.176;2023-12-20T15:16:54;4.60;99.90
17202;DHT22;8717;53.588;10.176;2023-12-20T15:19:22;4.70;99.90
17202;DHT22;8717;53.588;10.176;2023-12-20T15:21:50;4.70;99.90
17202;DHT22;8717;53.588;10.176;2023-12-20T15:24:16;4.70;99.90
17202;DHT22;8717;53.588;10.176;2023-12-20T15:26:45;4.70;99.90
17202;DHT22;8717;53.588;10.176;2023-12-20T15:29:12;4.80;99.90
17202;DHT22;8717;53.588;10.176;2023-12-20T15:31:42;4.80;99.90
17202;DHT22;8717;53.588;10.176;2023-12-20T15:34:09;4.80;99.90
17202;DHT22;8717;53.588;10.176;2023-12-20T15:36:36;4.80;99.90
17202;DHT22;8717;53.588;10.176;2023-12-20T15:39:05;4.90;99.90
17202;DHT22;8717;53.588;10.176;2023-12-20T15:41:34;4.90;99.90
17202;DHT22;8717;53.588;10.176;2023-12-20T15:44:00;4.90;99.90
17202;DHT22;8717;53.588;10.176;2023-12-20T15:46:27;4.90;99.90